Terminal Aerodrome Forecast
Issued by NWS Duluth, MN

Home | Current Version | Previous Version | Text Only | Print | Product List | Glossary On
Versions: 1 2 3 4 5 6 7 8 9 10 11 12 13 14 15 16 17 18 19 20 21 22 23 24 25 26 27 28 29
000
FTUS43 KDLH 260541
TAFDLH
TAF
KDLH 260541Z 2606/2706 34007KT P6SM FEW080
     FM261700 32010G16KT P6SM VCSH BKN060
     FM262000 31010G16KT P6SM BKN090
     FM262300 31009KT P6SM SCT090
     FM270300 27005KT P6SM SKC=

USA.gov is the U.S. government's official web portal to all federal, state and local government web resources and services.